Time;durP1;ratioP1;P1;durP2;ratioP2;P2;SDS_P1;SDS_P2;PMS_P1;PMS_P2;Temp;Humidity;BMP_temperature;BMP_pressure;BME280_temperature;BME280_humidity;BME280_pressure;Samples;Min_cycle;Max_cycle;Signal;HPM_P1;HPM_P2
2022/07/10 00:02:11;;;;;;;12.90;1.95;;;16.60;54.70;;;;;;4980346;28;20058;-50
2022/07/10 00:04:39;;;;;;;5.15;1.63;;;16.50;54.80;;;;;;4983094;28;20072;-47
2022/07/10 00:07:07;;;;;;;17.08;2.38;;;16.50;54.90;;;;;;4982131;28;20057;-49
2022/07/10 00:09:34;;;;;;;8.48;2.10;;;16.40;54.90;;;;;;4982160;28;20494;-53
2022/07/10 00:12:01;;;;;;;7.10;2.03;;;16.30;54.90;;;;;;4980297;28;20368;-52
2022/07/10 00:14:30;;;;;;;7.25;1.77;;;16.30;55.00;;;;;;4981469;28;20057;-50
2022/07/10 00:16:58;;;;;;;8.63;1.60;;;16.30;55.10;;;;;;4980721;28;20065;-51
2022/07/10 00:19:25;;;;;;;7.13;1.40;;;16.20;55.20;;;;;;4995842;28;20058;-50
2022/07/10 00:21:53;;;;;;;10.48;1.50;;;16.20;55.30;;;;;;4981883;28;20061;-50
2022/07/10 00:24:20;;;;;;;5.45;1.60;;;16.20;55.30;;;;;;4982067;28;20081;-49
2022/07/10 00:26:48;;;;;;;10.30;1.77;;;16.10;55.40;;;;;;4980623;28;20054;-48
2022/07/10 00:29:16;;;;;;;6.53;1.58;;;16.00;55.50;;;;;;4981245;28;20061;-51
2022/07/10 00:31:45;;;;;;;7.45;1.70;;;16.00;55.60;;;;;;4979726;28;20057;-50
2022/07/10 00:34:13;;;;;;;6.38;1.38;;;16.00;55.60;;;;;;4981402;28;20057;-48
2022/07/10 00:36:41;;;;;;;7.90;1.50;;;16.00;55.70;;;;;;4982001;28;20066;-48
2022/07/10 00:39:08;;;;;;;8.88;1.73;;;15.90;55.70;;;;;;4981789;28;20050;-50
2022/07/10 00:41:35;;;;;;;9.70;1.52;;;15.90;55.80;;;;;;4981462;28;20058;-49
2022/07/10 00:44:04;;;;;;;7.65;2.03;;;15.80;55.90;;;;;;4981667;28;20098;-53
2022/07/10 00:46:33;;;;;;;10.02;1.52;;;15.80;56.00;;;;;;4980571;28;21037;-47
2022/07/10 00:49:01;;;;;;;8.73;1.90;;;15.80;56.10;;;;;;4981124;28;20058;-59
2022/07/10 00:51:31;;;;;;;7.70;1.67;;;15.70;56.20;;;;;;4980293;28;20062;-50
2022/07/10 00:54:00;;;;;;;9.00;1.60;;;15.70;56.20;;;;;;4981911;28;20498;-59
2022/07/10 00:56:28;;;;;;;10.07;1.60;;;15.70;56.90;;;;;;4981832;28;20065;-47
2022/07/10 00:58:58;;;;;;;8.57;1.80;;;15.60;56.40;;;;;;4983161;28;20050;-48
2022/07/10 01:01:25;;;;;;;7.63;1.30;;;15.60;56.50;;;;;;4983556;28;20054;-52
2022/07/10 01:03:53;;;;;;;4.07;1.55;;;15.50;56.60;;;;;;4985706;28;20054;-49
2022/07/10 01:06:21;;;;;;;7.90;1.42;;;15.50;56.70;;;;;;4984558;28;20046;-47
2022/07/10 01:08:49;;;;;;;5.65;1.48;;;15.40;56.70;;;;;;4984804;28;20066;-52
2022/07/10 01:11:17;;;;;;;8.57;1.40;;;15.40;56.70;;;;;;4986054;28;20414;-50
2022/07/10 01:13:45;;;;;;;7.97;1.75;;;15.40;56.80;;;;;;4984911;28;20050;-52
2022/07/10 01:16:12;;;;;;;8.40;1.40;;;15.40;56.80;;;;;;4983958;28;20054;-49
2022/07/10 01:18:40;;;;;;;4.68;1.27;;;15.40;56.90;;;;;;4986019;28;20065;-51
2022/07/10 01:21:24;;;;;;;3.17;1.38;;;15.40;56.80;;;;;;4987133;28;20529;-52
2022/07/10 01:23:52;;;;;;;5.47;1.70;;;15.30;57.00;;;;;;4985697;28;20062;-51
2022/07/10 01:26:21;;;;;;;7.13;1.48;;;15.30;57.00;;;;;;4985037;28;20080;-48
2022/07/10 01:28:50;;;;;;;5.20;1.23;;;15.30;57.10;;;;;;4985605;28;20054;-46
2022/07/10 01:31:18;;;;;;;10.20;1.60;;;15.30;57.20;;;;;;4983586;28;20057;-51
2022/07/10 01:33:46;;;;;;;7.88;2.03;;;15.20;57.30;;;;;;4985231;28;20406;-50
2022/07/10 01:36:15;;;;;;;5.50;1.80;;;15.20;57.30;;;;;;4984647;28;20050;-55
2022/07/10 01:38:43;;;;;;;11.38;2.30;;;15.20;57.30;;;;;;4979904;28;20061;-48
2022/07/10 01:41:11;;;;;;;6.15;1.63;;;15.20;57.50;;;;;;4984262;28;20069;-48
2022/07/10 01:43:42;;;;;;;5.85;1.58;;;15.10;57.60;;;;;;4985089;28;20054;-50
2022/07/10 01:46:10;;;;;;;9.10;1.80;;;15.10;57.70;;;;;;4983224;28;20483;-53
2022/07/10 01:48:38;;;;;;;5.18;1.40;;;15.10;57.70;;;;;;4984917;28;20054;-50
2022/07/10 01:51:07;;;;;;;5.35;1.33;;;15.10;57.70;;;;;;4983768;28;20065;-51
2022/07/10 01:53:36;;;;;;;6.55;1.55;;;15.10;57.80;;;;;;4984197;28;20054;-51
2022/07/10 01:56:06;;;;;;;8.52;1.50;;;15.10;57.80;;;;;;4983896;28;20062;-53
2022/07/10 01:58:33;;;;;;;6.15;1.20;;;15.10;58.00;;;;;;4984073;28;20069;-50
2022/07/10 02:01:01;;;;;;;6.38;1.52;;;15.00;58.00;;;;;;4982304;28;20058;-51
2022/07/10 02:06:13;;;;;;;12.93;1.92;;;15.00;58.10;;;;;;4990590;28;20080;-48
2022/07/10 02:08:42;;;;;;;8.60;1.77;;;15.00;58.10;;;;;;4983755;28;20065;-53
2022/07/10 02:11:10;;;;;;;7.55;1.55;;;14.90;58.10;;;;;;4984485;28;20528;-51
2022/07/10 02:13:37;;;;;;;9.43;1.83;;;14.90;58.20;;;;;;4979790;28;20057;-51
2022/07/10 02:16:05;;;;;;;11.20;1.33;;;14.80;58.30;;;;;;4980591;28;20070;-52
2022/07/10 02:18:33;;;;;;;14.30;1.58;;;14.80;58.40;;;;;;4984194;28;20053;-49
2022/07/10 02:21:00;;;;;;;6.72;1.92;;;14.80;58.40;;;;;;4984221;28;20071;-50
2022/07/10 02:23:28;;;;;;;11.45;1.95;;;14.80;58.50;;;;;;4982718;28;20043;-53
2022/07/10 02:25:57;;;;;;;6.47;1.38;;;14.70;58.60;;;;;;4982825;28;20061;-48
2022/07/10 02:28:27;;;;;;;8.10;1.73;;;14.70;58.60;;;;;;4982616;28;20057;-49
2022/07/10 02:30:54;;;;;;;7.63;1.20;;;14.70;58.60;;;;;;4983142;28;20050;-55
2022/07/10 02:33:22;;;;;;;12.48;1.70;;;14.70;58.60;;;;;;4983382;28;20046;-50
2022/07/10 02:35:49;;;;;;;6.93;1.30;;;14.70;58.60;;;;;;4982611;28;20062;-55
2022/07/10 02:38:17;;;;;;;7.57;1.48;;;14.60;58.60;;;;;;4984627;28;20623;-50
2022/07/10 02:40:45;;;;;;;5.80;1.23;;;14.70;58.60;;;;;;4984283;28;20525;-49
2022/07/10 02:43:14;;;;;;;6.35;1.23;;;14.70;58.60;;;;;;4983429;28;20406;-55
2022/07/10 02:45:41;;;;;;;5.88;1.20;;;14.70;58.50;;;;;;4984245;28;20050;-52
2022/07/10 02:48:09;;;;;;;7.57;1.85;;;14.70;58.50;;;;;;4983580;28;20058;-53
2022/07/10 02:50:36;;;;;;;9.05;1.80;;;14.80;58.60;;;;;;4983443;28;20074;-51
2022/07/10 02:53:04;;;;;;;5.10;1.30;;;14.80;58.60;;;;;;4981424;28;20491;-50
2022/07/10 02:55:32;;;;;;;9.73;1.75;;;14.80;58.50;;;;;;4984560;28;20396;-48
2022/07/10 02:58:00;;;;;;;7.47;1.30;;;14.80;58.50;;;;;;4953675;28;20046;-52
2022/07/10 03:00:29;;;;;;;9.55;1.73;;;14.80;58.50;;;;;;4969309;28;20050;-52
2022/07/10 03:02:57;;;;;;;6.07;1.23;;;14.80;58.60;;;;;;4981994;28;20050;-53
2022/07/10 03:05:24;;;;;;;7.40;1.23;;;14.80;58.60;;;;;;4984161;28;20055;-54
2022/07/10 03:07:52;;;;;;;5.43;1.45;;;14.90;58.70;;;;;;4985037;28;20065;-50
2022/07/10 03:10:19;;;;;;;7.45;1.45;;;14.90;58.70;;;;;;4981981;28;20521;-51
2022/07/10 03:12:47;;;;;;;6.40;1.55;;;15.00;58.70;;;;;;4981632;28;20058;-51
2022/07/10 03:15:15;;;;;;;8.35;2.35;;;15.00;58.80;;;;;;4982510;28;20065;-53
2022/07/10 03:17:44;;;;;;;6.55;1.48;;;15.10;58.60;;;;;;4983741;28;20061;-50
2022/07/10 03:20:11;;;;;;;10.13;1.50;;;15.10;58.60;;;;;;4978445;28;20054;-48
2022/07/10 03:22:39;;;;;;;8.13;1.30;;;15.10;58.60;;;;;;4981421;28;20502;-57
2022/07/10 03:25:08;;;;;;;5.30;1.35;;;15.20;58.60;;;;;;4975584;28;20046;-52
2022/07/10 03:27:35;;;;;;;6.53;1.40;;;15.20;58.50;;;;;;4981715;28;20050;-54
2022/07/10 03:30:03;;;;;;;7.60;1.55;;;15.20;58.50;;;;;;4984323;28;20061;-53
2022/07/10 03:32:31;;;;;;;5.88;1.15;;;15.30;59.00;;;;;;4983398;28;20373;-56
2022/07/10 03:35:00;;;;;;;9.02;1.70;;;15.30;58.30;;;;;;4980978;28;20061;-50
2022/07/10 03:37:28;;;;;;;4.15;1.55;;;15.30;58.30;;;;;;4980949;28;20495;-51
2022/07/10 03:39:55;;;;;;;7.70;1.80;;;15.40;58.50;;;;;;4982482;28;20126;-55
2022/07/10 03:42:23;;;;;;;12.25;1.40;;;15.40;58.50;;;;;;4981951;28;20050;-58
2022/07/10 03:44:50;;;;;;;11.15;2.05;;;15.40;58.40;;;;;;4982113;28;20058;-56
2022/07/10 03:47:18;;;;;;;10.30;3.03;;;15.40;58.30;;;;;;4981014;28;20490;-53
2022/07/10 03:49:46;;;;;;;8.80;2.30;;;15.50;58.40;;;;;;4984173;28;20057;-54
2022/07/10 03:52:15;;;;;;;8.48;1.75;;;15.50;58.50;;;;;;4984588;28;20069;-56
2022/07/10 03:54:42;;;;;;;5.05;1.52;;;15.60;58.50;;;;;;4983497;28;20058;-52
2022/07/10 03:59:54;;;;;;;7.07;1.65;;;15.60;58.50;;;;;;4987198;28;20057;-48
2022/07/10 04:02:22;;;;;;;11.68;1.95;;;15.50;58.50;;;;;;4978671;28;20050;-51
2022/07/10 04:04:50;;;;;;;6.05;1.60;;;15.50;58.60;;;;;;4984195;28;20058;-53
2022/07/10 04:07:18;;;;;;;8.90;2.38;;;15.50;58.60;;;;;;4982406;28;20482;-49
2022/07/10 04:09:46;;;;;;;7.13;1.75;;;15.50;58.50;;;;;;4981079;28;20054;-54
2022/07/10 04:12:13;;;;;;;10.68;1.83;;;15.50;58.60;;;;;;4983854;28;20054;-50
2022/07/10 04:14:41;;;;;;;8.63;1.80;;;15.50;58.70;;;;;;4983356;28;20058;-53
2022/07/10 04:17:08;;;;;;;10.55;1.60;;;15.50;58.70;;;;;;4982019;28;20058;-51
2022/07/10 04:19:36;;;;;;;14.15;2.45;;;15.50;58.90;;;;;;4977214;28;20050;-54
2022/07/10 04:22:03;;;;;;;14.32;1.70;;;15.50;58.90;;;;;;4983286;28;20062;-55
2022/07/10 04:24:32;;;;;;;9.13;1.48;;;15.50;58.90;;;;;;4979929;28;20054;-50
2022/07/10 04:27:00;;;;;;;8.85;1.73;;;15.50;59.00;;;;;;4979456;28;20054;-48
2022/07/10 04:29:27;;;;;;;6.85;1.80;;;15.50;59.00;;;;;;4982089;28;20494;-52
2022/07/10 04:31:55;;;;;;;6.35;1.52;;;15.50;59.20;;;;;;4981064;28;20054;-53
2022/07/10 04:34:22;;;;;;;8.82;1.50;;;15.50;59.30;;;;;;4985502;28;20402;-51
2022/07/10 04:36:50;;;;;;;8.60;2.03;;;15.50;59.80;;;;;;4987121;28;20058;-52
2022/07/10 04:39:18;;;;;;;8.93;2.20;;;15.50;59.30;;;;;;4988308;28;20064;-53
2022/07/10 04:41:46;;;;;;;7.75;1.50;;;15.50;59.30;;;;;;4988171;28;20067;-50
2022/07/10 04:44:14;;;;;;;6.95;1.75;;;15.50;59.20;;;;;;4988389;28;20057;-56
2022/07/10 04:46:41;;;;;;;7.68;2.15;;;15.60;59.10;;;;;;4986905;28;20054;-53
2022/07/10 04:49:09;;;;;;;12.98;2.60;;;15.60;59.10;;;;;;4985974;28;20482;-52
2022/07/10 04:51:36;;;;;;;8.70;1.60;;;15.60;59.10;;;;;;4987388;28;20063;-53
2022/07/10 04:54:04;;;;;;;23.85;2.53;;;15.60;59.10;;;;;;4989612;28;20077;-53
2022/07/10 04:56:31;;;;;;;5.68;1.70;;;15.60;59.20;;;;;;4986715;28;20503;-51
2022/07/10 04:59:00;;;;;;;8.13;2.20;;;15.60;59.20;;;;;;4986796;28;20057;-51
2022/07/10 05:01:28;;;;;;;6.50;1.60;;;15.60;59.30;;;;;;4984909;28;20509;-49
2022/07/10 05:03:55;;;;;;;12.70;1.90;;;15.60;59.40;;;;;;4986022;28;20058;-50
2022/07/10 05:06:23;;;;;;;7.82;1.90;;;15.60;59.80;;;;;;4987904;28;20061;-52
2022/07/10 05:08:50;;;;;;;6.93;1.85;;;15.60;60.10;;;;;;4989304;28;20065;-49
2022/07/10 05:11:18;;;;;;;12.65;2.15;;;15.60;60.60;;;;;;4989694;28;20058;-51
2022/07/10 05:13:48;;;;;;;6.97;1.80;;;15.60;60.40;;;;;;4987963;28;20514;-45
2022/07/10 05:16:17;;;;;;;4.93;1.90;;;15.60;60.40;;;;;;4986997;28;20058;-49
2022/07/10 05:18:44;;;;;;;6.95;1.85;;;15.60;60.20;;;;;;4986279;28;20061;-56
2022/07/10 05:21:12;;;;;;;10.25;2.22;;;15.70;60.20;;;;;;4982816;28;20733;-51
2022/07/10 05:23:40;;;;;;;10.13;1.63;;;15.70;60.30;;;;;;4989672;28;20490;-51
2022/07/10 05:26:08;;;;;;;8.57;1.77;;;15.80;60.60;;;;;;4989341;28;20066;-54
2022/07/10 05:28:36;;;;;;;5.70;1.92;;;15.80;60.60;;;;;;4988831;28;20498;-49
2022/07/10 05:31:03;;;;;;;10.05;1.98;;;15.80;61.00;;;;;;4989305;28;20050;-51
2022/07/10 05:33:32;;;;;;;11.15;2.20;;;15.80;60.80;;;;;;4990300;28;20061;-50
2022/07/10 05:36:00;;;;;;;9.00;2.03;;;15.90;60.60;;;;;;4984723;28;20062;-50
2022/07/10 05:38:27;;;;;;;8.90;2.10;;;15.90;60.40;;;;;;4988393;28;20058;-52
2022/07/10 05:40:55;;;;;;;13.90;2.20;;;16.00;60.60;;;;;;4985766;28;20099;-54
2022/07/10 05:43:22;;;;;;;5.78;1.83;;;16.10;60.60;;;;;;4986948;28;20062;-53
2022/07/10 05:45:50;;;;;;;11.30;2.72;;;16.10;60.30;;;;;;4985094;28;20104;-53
2022/07/10 05:48:17;;;;;;;7.35;2.00;;;16.10;60.50;;;;;;4984355;28;20062;-52
2022/07/10 05:50:46;;;;;;;9.55;1.77;;;16.20;60.10;;;;;;4984153;28;20046;-47
2022/07/10 05:53:13;;;;;;;14.15;2.53;;;16.30;59.70;;;;;;4985401;28;20509;-47
2022/07/10 05:55:41;;;;;;;12.70;2.47;;;16.30;59.50;;;;;;4984167;28;20537;-50
2022/07/10 05:58:08;;;;;;;15.60;2.38;;;16.30;59.10;;;;;;4983483;28;20054;-49
2022/07/10 06:00:36;;;;;;;10.27;2.08;;;16.30;59.00;;;;;;4979541;28;20050;-48
2022/07/10 06:03:03;;;;;;;11.35;2.15;;;16.40;58.90;;;;;;4982637;28;21676;-52
2022/07/10 06:05:31;;;;;;;11.52;2.13;;;16.40;58.70;;;;;;4983098;28;20050;-48
2022/07/10 06:08:00;;;;;;;7.82;2.00;;;16.40;58.40;;;;;;4985651;28;20434;-51
2022/07/10 06:10:27;;;;;;;8.60;2.13;;;16.40;58.00;;;;;;4984135;28;20058;-51
2022/07/10 06:12:55;;;;;;;8.68;2.47;;;16.40;57.70;;;;;;4985369;28;20057;-49
2022/07/10 06:15:22;;;;;;;15.20;2.55;;;16.50;57.70;;;;;;4985045;28;20058;-52
2022/07/10 06:17:50;;;;;;;14.88;2.50;;;16.50;58.10;;;;;;4982815;28;20046;-59
2022/07/10 06:20:17;;;;;;;13.30;2.22;;;16.50;57.50;;;;;;4983948;28;20069;-52
2022/07/10 06:22:45;;;;;;;7.45;2.28;;;16.50;57.50;;;;;;4986155;28;20054;-52
2022/07/10 06:25:14;;;;;;;7.80;2.30;;;16.50;57.30;;;;;;4983917;28;20054;-51
2022/07/10 06:27:41;;;;;;;15.90;2.08;;;16.50;57.20;;;;;;4982655;28;20061;-56
2022/07/10 06:30:10;;;;;;;7.95;2.25;;;16.60;57.30;;;;;;4975120;28;20409;-49
2022/07/10 06:32:37;;;;;;;13.75;2.10;;;16.70;57.50;;;;;;4977108;28;20058;-53
2022/07/10 06:35:07;;;;;;;12.40;2.50;;;16.80;57.30;;;;;;4983645;28;20057;-48
2022/07/10 06:37:34;;;;;;;6.53;1.60;;;16.90;55.80;;;;;;4981914;28;20050;-56
2022/07/10 06:40:02;;;;;;;11.23;2.20;;;16.90;54.70;;;;;;4983866;28;20065;-59
2022/07/10 06:42:30;;;;;;;13.10;1.42;;;16.80;54.60;;;;;;4985643;28;20081;-50
2022/07/10 06:44:58;;;;;;;11.18;1.75;;;16.80;54.50;;;;;;4982316;28;20054;-52
2022/07/10 06:50:10;;;;;;;10.63;1.70;;;16.70;54.40;;;;;;4987222;28;20529;-48
2022/07/10 06:52:38;;;;;;;10.65;2.72;;;16.80;55.30;;;;;;4983726;28;20081;-56
2022/07/10 06:55:06;;;;;;;8.85;1.52;;;16.80;54.60;;;;;;4981570;28;20062;-49
2022/07/10 06:57:35;;;;;;;7.35;1.45;;;16.80;54.90;;;;;;4983417;28;20608;-51
2022/07/10 07:00:03;;;;;;;7.07;1.90;;;16.80;55.10;;;;;;4980264;28;20058;-49
2022/07/10 07:02:31;;;;;;;13.50;1.98;;;16.90;55.10;;;;;;4981086;28;20050;-50
2022/07/10 07:04:58;;;;;;;7.45;1.63;;;16.90;55.00;;;;;;4980561;28;20513;-54
2022/07/10 07:07:25;;;;;;;15.82;2.17;;;16.90;55.00;;;;;;4976093;28;20054;-56
2022/07/10 07:09:53;;;;;;;10.60;1.95;;;17.00;54.30;;;;;;4984112;28;20077;-51
2022/07/10 07:12:20;;;;;;;9.32;1.60;;;17.00;53.80;;;;;;4978636;28;20047;-52
2022/07/10 07:14:49;;;;;;;7.10;2.38;;;17.10;54.30;;;;;;4981167;28;20061;-49
2022/07/10 07:17:22;;;;;;;8.30;1.48;;;17.10;54.30;;;;;;4979548;28;20058;-53
2022/07/10 07:25:20;;;;;;;12.43;1.60;;;17.10;53.00;;;;;;4988384;28;20069;-54
2022/07/10 07:27:47;;;;;;;10.70;2.10;;;17.10;53.10;;;;;;4982992;28;20054;-53
2022/07/10 07:30:16;;;;;;;13.25;1.73;;;17.20;53.40;;;;;;4981114;28;20057;-49
2022/07/10 07:32:45;;;;;;;5.55;1.30;;;17.20;52.30;;;;;;4982401;28;20077;-50
2022/07/10 07:35:14;;;;;;;7.90;1.40;;;17.20;52.50;;;;;;4980123;28;20738;-56
2022/07/10 07:37:43;;;;;;;5.80;1.30;;;17.20;52.40;;;;;;4984195;28;20058;-50
2022/07/10 07:40:12;;;;;;;11.10;1.77;;;17.20;52.40;;;;;;4981702;28;20054;-55
2022/07/10 07:42:40;;;;;;;12.48;1.40;;;17.20;52.00;;;;;;4982649;28;20046;-57
2022/07/10 07:45:09;;;;;;;10.30;2.08;;;17.20;52.10;;;;;;4981492;28;20058;-49
2022/07/10 07:47:46;;;;;;;8.77;1.35;;;17.30;52.50;;;;;;4981096;28;20081;-52
2022/07/10 07:50:15;;;;;;;6.20;1.35;;;17.30;52.60;;;;;;4984110;28;20054;-50
2022/07/10 07:52:43;;;;;;;5.47;1.05;;;17.40;53.20;;;;;;4982628;28;20050;-50
2022/07/10 07:55:11;;;;;;;7.03;1.30;;;17.50;51.80;;;;;;4982495;28;20434;-52
2022/07/10 07:57:39;;;;;;;7.03;1.35;;;17.60;52.40;;;;;;4982814;28;20058;-51
2022/07/10 08:00:08;;;;;;;5.53;1.23;;;17.70;52.00;;;;;;4978852;28;20410;-60
2022/07/10 08:02:36;;;;;;;6.90;1.48;;;17.80;50.20;;;;;;4981623;28;20053;-48
2022/07/10 08:05:06;;;;;;;8.45;1.50;;;17.80;50.40;;;;;;4982682;28;20058;-50
2022/07/10 08:07:37;;;;;;;7.32;1.30;;;17.90;50.40;;;;;;4979812;28;20054;-51
2022/07/10 08:10:08;;;;;;;8.80;1.63;;;17.90;50.10;;;;;;4981881;28;20065;-53
2022/07/10 08:12:35;;;;;;;5.47;1.58;;;18.00;50.30;;;;;;4983101;28;20602;-52
2022/07/10 08:15:03;;;;;;;5.05;1.70;;;18.00;51.00;;;;;;4982769;28;20054;-57
2022/07/10 08:17:30;;;;;;;8.80;2.15;;;18.00;49.30;;;;;;4980296;28;20062;-48
2022/07/10 08:19:58;;;;;;;10.18;1.80;;;18.00;49.70;;;;;;4981817;28;20073;-49
2022/07/10 08:22:27;;;;;;;5.75;1.73;;;18.00;49.70;;;;;;4982169;28;20422;-51
2022/07/10 08:24:56;;;;;;;7.05;1.70;;;18.00;49.90;;;;;;4983351;28;20066;-52
2022/07/10 08:27:23;;;;;;;6.60;1.58;;;18.10;50.30;;;;;;4980376;28;20058;-51
2022/07/10 08:29:51;;;;;;;6.00;1.60;;;18.10;49.70;;;;;;4982241;28;20058;-50
2022/07/10 08:32:18;;;;;;;4.30;1.63;;;18.20;49.80;;;;;;4980261;28;20058;-51
2022/07/10 08:34:47;;;;;;;8.32;1.55;;;18.20;50.30;;;;;;4981636;28;20050;-50
2022/07/10 08:37:15;;;;;;;5.28;1.52;;;18.20;49.90;;;;;;4981616;28;20062;-53
2022/07/10 08:39:44;;;;;;;10.82;1.60;;;18.20;49.70;;;;;;4980513;28;20054;-48
2022/07/10 08:42:11;;;;;;;6.78;1.67;;;18.30;49.90;;;;;;4982520;28;20059;-50
2022/07/10 08:44:40;;;;;;;10.02;1.85;;;18.30;50.10;;;;;;4982563;28;20065;-56
2022/07/10 08:47:07;;;;;;;6.25;1.75;;;18.40;50.00;;;;;;4979544;28;20142;-52
2022/07/10 08:49:35;;;;;;;8.93;2.08;;;18.40;49.90;;;;;;4981677;28;20050;-53
2022/07/10 08:52:05;;;;;;;4.38;1.30;;;18.40;49.20;;;;;;4978341;28;20497;-50
2022/07/10 08:54:34;;;;;;;6.93;1.95;;;18.40;48.80;;;;;;4981874;28;20050;-51
2022/07/10 08:57:04;;;;;;;7.55;1.85;;;18.40;49.10;;;;;;4978595;28;20070;-50
2022/07/10 08:59:32;;;;;;;5.60;1.58;;;18.40;49.30;;;;;;4980653;28;20047;-50
2022/07/10 09:02:00;;;;;;;5.80;1.60;;;18.30;49.40;;;;;;4981275;28;20494;-51
2022/07/10 09:04:28;;;;;;;4.88;1.50;;;18.40;49.50;;;;;;4982673;28;20364;-52
2022/07/10 09:06:56;;;;;;;9.95;2.08;;;18.30;50.00;;;;;;4980204;28;20065;-54
2022/07/10 09:09:25;;;;;;;6.05;1.85;;;18.30;49.90;;;;;;4977270;28;20546;-48
2022/07/10 09:11:57;;;;;;;5.07;1.60;;;18.30;50.00;;;;;;4982271;28;20063;-52
2022/07/10 09:14:28;;;;;;;7.45;1.45;;;18.30;50.40;;;;;;4977868;28;20054;-48
2022/07/10 09:16:56;;;;;;;7.40;1.60;;;18.30;50.70;;;;;;4976747;28;20517;-49
2022/07/10 09:19:25;;;;;;;3.95;1.35;;;18.30;50.80;;;;;;4982432;28;20387;-48
2022/07/10 09:21:53;;;;;;;7.63;1.40;;;18.30;50.80;;;;;;4985805;28;20054;-49
2022/07/10 09:24:21;;;;;;;9.18;1.73;;;18.30;50.90;;;;;;4985694;28;20387;-51
2022/07/10 09:27:03;;;;;;;8.68;1.83;;;18.40;51.00;;;;;;4985858;28;20065;-51
2022/07/10 09:29:33;;;;;;;7.13;1.40;;;18.40;50.60;;;;;;4985842;28;20051;-49
2022/07/10 09:32:01;;;;;;;5.93;1.65;;;18.40;50.60;;;;;;4983243;28;20066;-52
2022/07/10 09:34:39;;;;;;;4.38;1.55;;;18.40;50.40;;;;;;4985595;28;20061;-51
2022/07/10 09:37:20;;;;;;;7.72;1.70;;;18.40;50.40;;;;;;4983109;28;20054;-49
2022/07/10 09:39:58;;;;;;;5.93;1.42;;;18.50;50.50;;;;;;4979878;28;20050;-51
2022/07/10 09:42:31;;;;;;;5.68;1.38;;;18.50;51.00;;;;;;4983057;28;20046;-54
2022/07/10 09:45:19;;;;;;;7.82;1.35;;;18.50;50.70;;;;;;4984892;28;20055;-50
2022/07/10 09:47:55;;;;;;;14.68;1.98;;;18.50;50.50;;;;;;4982157;28;20058;-49
2022/07/10 09:50:27;;;;;;;5.60;1.50;;;18.50;50.40;;;;;;4986597;28;20058;-52
2022/07/10 09:52:56;;;;;;;6.57;1.38;;;18.60;50.80;;;;;;4984883;28;20054;-48
2022/07/10 09:55:27;;;;;;;6.95;1.83;;;18.60;50.80;;;;;;4984185;28;20121;-50
2022/07/10 09:57:57;;;;;;;6.22;1.30;;;18.60;50.80;;;;;;4982401;28;20569;-49
2022/07/10 10:00:27;;;;;;;12.32;1.27;;;18.60;50.50;;;;;;4982851;28;20046;-51
2022/07/10 10:02:57;;;;;;;6.50;1.55;;;18.70;50.70;;;;;;4982582;28;20479;-47
2022/07/10 10:05:34;;;;;;;5.35;1.25;;;18.70;50.40;;;;;;4982982;28;20077;-55
2022/07/10 10:08:05;;;;;;;5.75;1.60;;;18.80;50.70;;;;;;4980833;28;20054;-50
2022/07/10 10:10:35;;;;;;;5.22;1.70;;;18.90;50.90;;;;;;4984851;28;20058;-50
2022/07/10 10:13:08;;;;;;;10.10;2.08;;;18.90;50.80;;;;;;4983631;28;20046;-53
2022/07/10 10:15:38;;;;;;;9.32;1.58;;;18.90;51.40;;;;;;4982006;28;20112;-52
2022/07/10 10:18:07;;;;;;;5.90;2.00;;;19.10;50.50;;;;;;4983536;28;20054;-55
2022/07/10 10:20:37;;;;;;;5.60;1.75;;;19.10;50.80;;;;;;4981718;28;20054;-52
2022/07/10 10:23:05;;;;;;;8.15;2.63;;;19.10;50.50;;;;;;4984755;28;20050;-49
2022/07/10 10:25:35;;;;;;;5.32;1.73;;;19.10;50.60;;;;;;4983438;28;20449;-54
2022/07/10 10:28:06;;;;;;;5.47;2.25;;;19.20;50.40;;;;;;4980170;28;20053;-48
2022/07/10 10:30:37;;;;;;;8.40;2.25;;;19.20;50.40;;;;;;4982456;28;20046;-53
2022/07/10 10:33:44;;;;;;;5.60;2.17;;;19.10;50.10;;;;;;4974498;28;20057;-48
2022/07/10 10:36:13;;;;;;;8.43;2.28;;;19.10;50.20;;;;;;4983408;28;20054;-48
2022/07/10 10:39:10;;;;;;;9.60;3.40;;;19.00;50.10;;;;;;4981741;28;20391;-50
2022/07/10 10:41:41;;;;;;;9.40;2.88;;;18.90;50.40;;;;;;4975779;28;20550;-47
2022/07/10 10:44:35;;;;;;;7.15;2.70;;;18.80;51.10;;;;;;4981669;28;20050;-48
2022/07/10 10:47:07;;;;;;;3.95;2.20;;;18.80;51.60;;;;;;4981930;28;20050;-51
2022/07/10 10:49:56;;;;;;;4.90;2.45;;;18.80;51.70;;;;;;4984115;28;20054;-48
2022/07/10 10:52:25;;;;;;;6.60;2.30;;;18.80;51.30;;;;;;4982441;28;20077;-49
2022/07/10 10:55:16;;;;;;;6.75;2.80;;;18.80;51.70;;;;;;4984310;28;20062;-50
2022/07/10 10:57:51;;;;;;;8.40;2.60;;;18.70;51.90;;;;;;4964557;28;20053;-48
2022/07/10 11:00:41;;;;;;;7.05;2.80;;;18.70;51.70;;;;;;4980406;28;20494;-49
2022/07/10 11:03:22;;;;;;;5.85;2.72;;;18.70;52.10;;;;;;4978098;28;20441;-49
2022/07/10 11:05:52;;;;;;;6.90;2.75;;;18.60;52.10;;;;;;4981094;28;20061;-48
2022/07/10 11:08:40;;;;;;;5.93;2.45;;;18.60;52.40;;;;;;4984776;28;20054;-47
2022/07/10 11:11:39;;;;;;;5.03;2.30;;;18.50;52.70;;;;;;4984936;28;20494;-48
2022/07/10 11:14:09;;;;;;;6.05;2.50;;;18.50;52.90;;;;;;4971148;28;20050;-47
2022/07/10 11:16:39;;;;;;;4.20;2.35;;;18.50;53.00;;;;;;4981858;28;20494;-54
2022/07/10 11:19:06;;;;;;;6.05;2.30;;;18.50;52.80;;;;;;4980994;28;20053;-55
2022/07/10 11:21:49;;;;;;;3.80;2.35;;;18.50;52.70;;;;;;4983183;28;21506;-51
2022/07/10 11:24:34;;;;;;;5.90;2.92;;;18.50;52.70;;;;;;4982399;28;20051;-49
2022/07/10 11:27:13;;;;;;;4.35;2.47;;;18.60;53.00;;;;;;4984664;28;20054;-46
2022/07/10 11:29:42;;;;;;;6.63;2.80;;;18.60;53.30;;;;;;4985893;28;20495;-48
2022/07/10 11:32:09;;;;;;;7.32;2.80;;;18.70;53.00;;;;;;4986785;28;20054;-50
2022/07/10 11:34:37;;;;;;;8.60;2.85;;;18.70;53.00;;;;;;4984460;28;20042;-52
2022/07/10 11:37:15;;;;;;;8.70;3.10;;;18.80;52.80;;;;;;4986497;28;20066;-49
2022/07/10 11:39:44;;;;;;;5.82;3.22;;;18.80;53.30;;;;;;4984972;28;20050;-54
2022/07/10 11:42:12;;;;;;;12.98;3.33;;;18.90;53.50;;;;;;4985976;28;20062;-50
2022/07/10 11:44:40;;;;;;;7.15;2.95;;;18.90;53.10;;;;;;4986443;28;20062;-50
2022/07/10 11:47:08;;;;;;;7.15;3.67;;;18.90;52.90;;;;;;4983488;28;20057;-50
2022/07/10 11:49:45;;;;;;;5.70;3.17;;;18.90;52.60;;;;;;4985498;28;20058;-48
2022/07/10 11:52:13;;;;;;;7.72;3.83;;;18.90;52.70;;;;;;4987076;28;20066;-49
2022/07/10 11:54:42;;;;;;;9.32;4.28;;;18.80;53.10;;;;;;4985147;28;20058;-55
2022/07/10 11:57:10;;;;;;;5.97;4.10;;;18.80;53.40;;;;;;4983627;28;20054;-51
2022/07/10 11:59:38;;;;;;;7.07;4.45;;;18.80;53.40;;;;;;4981302;28;20065;-50
2022/07/10 12:02:06;;;;;;;10.82;4.13;;;18.80;53.30;;;;;;4983819;28;20054;-49
2022/07/10 12:04:34;;;;;;;5.28;3.75;;;18.80;53.30;;;;;;4983600;28;20572;-48
2022/07/10 12:07:01;;;;;;;8.57;4.43;;;18.70;53.40;;;;;;4982833;28;20066;-53
2022/07/10 12:09:30;;;;;;;9.80;4.47;;;18.70;53.30;;;;;;4981528;28;20058;-51
2022/07/10 12:12:01;;;;;;;7.60;4.20;;;18.70;53.70;;;;;;4983784;28;20050;-50
2022/07/10 12:14:29;;;;;;;5.80;4.22;;;18.80;54.20;;;;;;4983177;28;20528;-49
2022/07/10 12:16:58;;;;;;;8.20;3.80;;;18.80;54.10;;;;;;4981582;28;20130;-50
2022/07/10 12:19:27;;;;;;;7.95;4.22;;;18.90;54.30;;;;;;4981461;28;20490;-49
2022/07/10 12:21:55;;;;;;;5.60;3.90;;;19.00;53.80;;;;;;4983755;28;20077;-55
2022/07/10 12:24:23;;;;;;;11.90;4.85;;;19.00;53.40;;;;;;4984018;28;20058;-52
2022/07/10 12:26:55;;;;;;;6.88;4.47;;;19.10;53.50;;;;;;4980952;28;20478;-51
2022/07/10 12:29:24;;;;;;;6.05;4.35;;;19.10;53.20;;;;;;4982209;28;20062;-55
2022/07/10 12:31:54;;;;;;;6.45;4.97;;;19.10;53.30;;;;;;4977081;28;20072;-49
2022/07/10 12:34:34;;;;;;;11.73;5.57;;;19.10;53.20;;;;;;4982502;28;20054;-51
2022/07/10 12:37:08;;;;;;;7.15;5.07;;;19.10;53.20;;;;;;4982346;28;20058;-51
2022/07/10 12:39:38;;;;;;;8.63;4.70;;;19.10;53.30;;;;;;4982372;28;20054;-48
2022/07/10 12:42:08;;;;;;;8.57;5.40;;;19.10;53.10;;;;;;4979120;28;20054;-50
2022/07/10 12:44:38;;;;;;;8.88;4.88;;;19.00;53.20;;;;;;4982900;28;20060;-51
2022/07/10 12:47:10;;;;;;;6.68;5.47;;;19.00;53.50;;;;;;4981889;28;20421;-50
2022/07/10 12:49:51;;;;;;;7.05;4.75;;;19.00;53.70;;;;;;4982934;28;20635;-49
2022/07/10 12:52:27;;;;;;;11.38;5.40;;;19.00;54.00;;;;;;4977865;28;20046;-51
2022/07/10 12:55:15;;;;;;;9.82;5.20;;;18.90;54.60;;;;;;4979149;28;20520;-51
2022/07/10 12:57:49;;;;;;;8.80;5.43;;;19.00;54.70;;;;;;4978344;28;20050;-48
2022/07/10 13:00:18;;;;;;;9.05;4.60;;;19.00;54.50;;;;;;4984600;28;20494;-51
2022/07/10 13:02:49;;;;;;;9.43;4.95;;;19.00;54.60;;;;;;4984992;28;20050;-54
2022/07/10 13:05:27;;;;;;;11.32;5.20;;;19.10;54.60;;;;;;4984441;28;20070;-53
2022/07/10 13:08:06;;;;;;;10.23;4.97;;;19.10;54.70;;;;;;4985765;28;20122;-53
2022/07/10 13:10:36;;;;;;;8.13;4.40;;;19.20;55.20;;;;;;4985952;28;20597;-50
2022/07/10 13:13:04;;;;;;;11.25;5.25;;;19.20;54.80;;;;;;4985458;28;20054;-50